Time;durP1;ratioP1;P1;durP2;ratioP2;P2;SDS_P1;SDS_P2;PMS_P1;PMS_P2;Temp;Humidity;BMP_temperature;BMP_pressure;BME280_temperature;BME280_humidity;BME280_pressure;Samples;Min_cycle;Max_cycle;Signal;HPM_P1;HPM_P2
2022/05/23 00:01:49;;;;;;;5.65;1.35;;;;;;;15.56;72.49;100954.91;20772430;28;20060;-64
2022/05/23 00:12:11;;;;;;;5.50;1.50;;;;;;;15.42;72.96;100943.84;20772092;28;20049;-63
2022/05/23 00:22:32;;;;;;;;;;;;;;;15.20;72.13;100925.53;20769249;28;20068;-62
2022/05/23 00:43:34;;;;;;;4.70;1.60;;;;;;;15.18;73.37;100883.63;20776997;28;20054;-63
2022/05/23 00:53:59;;;;;;;5.18;1.50;;;;;;;15.15;73.70;100873.38;20768943;28;20048;-62
2022/05/23 01:04:21;;;;;;;6.07;1.48;;;;;;;15.13;73.58;100864.81;20758946;28;20064;-63
2022/05/23 01:14:49;;;;;;;6.85;1.70;;;;;;;15.06;73.88;100826.88;20763952;28;20052;-63
2022/05/23 01:25:33;;;;;;;4.93;1.70;;;;;;;14.96;73.74;100814.63;20768958;28;20046;-63
2022/05/23 01:35:57;;;;;;;4.70;1.75;;;;;;;14.85;74.47;100807.63;20758378;28;20425;-63
2022/05/23 01:46:19;;;;;;;4.80;1.67;;;;;;;14.79;74.56;100799.44;20775210;28;20056;-63
2022/05/23 01:56:41;;;;;;;6.88;1.60;;;;;;;14.67;74.90;100775.03;20777595;28;20042;-63
2022/05/23 02:07:05;;;;;;;4.82;1.70;;;;;;;14.56;75.03;100758.50;20773133;28;20058;-63
2022/05/23 02:17:26;;;;;;;7.32;1.80;;;;;;;14.45;75.63;100748.88;20783864;28;20052;-62
2022/05/23 02:27:48;;;;;;;5.25;1.75;;;;;;;14.38;75.93;100749.50;20771173;28;20053;-63
2022/05/23 02:38:10;;;;;;;13.85;2.00;;;;;;;14.29;76.45;100720.56;20781525;28;20502;-63
2022/05/23 02:48:31;;;;;;;5.20;1.80;;;;;;;14.18;76.93;100700.50;20781411;28;20045;-63
2022/05/23 02:58:53;;;;;;;2.92;1.60;;;;;;;14.15;76.61;100686.78;20774191;28;20050;-62
2022/05/23 03:09:14;;;;;;;6.15;1.83;;;;;;;14.14;76.47;100692.97;20768187;28;20062;-63
2022/05/23 03:19:38;;;;;;;6.63;1.90;;;;;;;14.14;76.95;100685.13;20754424;28;20052;-63
2022/05/23 03:29:59;;;;;;;3.15;1.85;;;;;;;14.17;76.16;100656.03;20782586;28;20137;-61
2022/05/23 03:40:21;;;;;;;4.07;1.73;;;;;;;14.21;76.49;100668.75;20798379;28;20120;-63
2022/05/23 03:50:43;;;;;;;4.72;1.90;;;;;;;14.28;76.15;100663.84;20776586;28;20056;-64
2022/05/23 04:01:13;;;;;;;6.05;2.13;;;;;;;14.38;74.91;100641.16;20781125;28;20077;-63
2022/05/23 04:11:35;;;;;;;6.63;2.13;;;;;;;14.48;75.23;100630.59;20788954;28;20651;-63
2022/05/23 04:21:56;;;;;;;3.47;2.08;;;;;;;14.53;74.68;100607.44;20797439;28;20046;-63
2022/05/23 04:42:58;;;;;;;4.70;2.10;;;;;;;14.75;74.93;100569.72;20753457;28;20405;-64
2022/05/23 04:53:20;;;;;;;8.02;2.47;;;;;;;14.79;75.07;100556.19;20765251;28;20176;-63
2022/05/23 05:03:42;;;;;;;4.75;2.80;;;;;;;14.91;74.56;100549.88;20777240;28;20125;-64
2022/05/23 05:14:05;;;;;;;;;;;;;;;15.03;76.60;100535.69;20764671;28;20129;-62
2022/05/23 05:24:26;;;;;;;8.48;3.00;;;;;;;15.17;74.14;100510.84;20790779;28;19921;-63
2022/05/23 05:34:53;;;;;;;11.75;3.70;;;;;;;15.28;74.17;100495.84;20787096;28;20050;-63
2022/05/23 05:45:22;;;;;;;7.82;2.65;;;;;;;15.49;73.42;100489.50;20782823;28;20514;-64
2022/05/23 05:55:44;;;;;;;5.45;2.95;;;;;;;15.68;73.54;100493.94;20778739;28;20517;-63
2022/05/23 06:16:46;;;;;;;5.90;2.73;;;;;;;16.19;71.79;100462.81;20786036;28;20164;-64
2022/05/23 06:27:09;;;;;;;4.65;2.67;;;;;;;16.47;71.29;100460.94;20789996;28;20049;-65
2022/05/23 06:37:30;;;;;;;9.15;2.85;;;;;;;16.73;70.89;100447.94;20779268;28;20068;-66
2022/05/23 06:47:52;;;;;;;6.28;2.80;;;;;;;17.05;70.06;100433.31;20776501;28;20048;-65
2022/05/23 06:58:14;;;;;;;5.15;2.50;;;;;;;17.32;70.23;100435.91;20781219;28;20042;-65
2022/05/23 07:19:16;;;;;;;9.10;3.30;;;;;;;17.80;69.08;100425.75;20801348;28;19921;-66
2022/05/23 07:29:38;;;;;;;8.30;3.47;;;;;;;17.97;68.48;100411.72;20806663;28;20055;-65
2022/05/23 07:40:00;;;;;;;;;;;;;;;18.24;68.63;100404.50;20772137;28;20045;-66
2022/05/23 07:50:27;;;;;;;;;;;;;;;18.48;68.43;100392.19;20779822;28;20686;-66
2022/05/23 08:00:49;;;;;;;5.20;2.35;;;;;;;18.71;68.53;100388.00;20784926;28;19921;-62
2022/05/23 08:11:13;;;;;;;7.93;2.85;;;;;;;18.99;67.81;100362.94;20786560;28;20042;-64
2022/05/23 08:21:38;;;;;;;5.55;2.90;;;;;;;19.32;67.43;100362.03;20784209;28;20050;-64
2022/05/23 08:31:59;;;;;;;;;;;;;;;19.61;67.83;100341.16;20787586;28;20537;-64
2022/05/23 08:42:24;;;;;;;;;;;;;;;19.94;66.96;100332.16;20731503;28;19937;-66
2022/05/23 08:52:49;;;;;;;;;;;;;;;20.20;66.98;100322.97;20775818;28;19963;-64
2022/05/23 09:03:17;;;;;;;;;;;;;;;20.45;67.38;100317.41;20761529;28;19921;-66
2022/05/23 09:13:41;;;;;;;;;;;;;;;20.73;67.32;100315.09;20768703;28;19935;-65
2022/05/23 09:24:03;;;;;;;;;;;;;;;20.96;66.79;100306.16;20771243;28;19921;-65
2022/05/23 09:34:30;;;;;;;;;;;;;;;21.24;65.43;100272.78;20771314;28;19922;-65
2022/05/23 09:55:35;;;;;;;5.70;2.50;;;;;;;21.80;64.92;100248.34;20771918;28;20046;-64
2022/05/23 10:06:16;;;;;;;6.45;2.63;;;;;;;22.09;57.66;100227.03;20766820;28;20049;-64
2022/05/23 10:16:48;;;;;;;;;;;;;;;22.21;54.52;100212.28;20793632;28;20070;-64
2022/05/23 10:27:20;;;;;;;6.43;2.08;;;;;;;22.66;61.91;100199.47;20807669;28;19921;-64
2022/05/23 10:37:44;;;;;;;4.75;2.17;;;;;;;23.06;63.90;100178.34;20767836;28;20512;-65
2022/05/23 10:48:35;;;;;;;4.15;2.00;;;;;;;23.54;57.65;100161.44;20781157;28;20041;-65
2022/05/23 10:59:02;;;;;;;7.70;1.95;;;;;;;23.89;60.96;100136.41;20780390;28;20487;-65
2022/05/23 11:09:48;;;;;;;14.57;1.55;;;;;;;24.22;58.81;100130.16;20789508;28;20132;-67
2022/05/23 11:20:16;;;;;;;;;;;;;;;24.47;60.21;100100.03;20774335;28;20052;-67
2022/05/23 11:41:32;;;;;;;3.72;1.55;;;;;;;25.15;50.94;100075.56;20768698;28;20053;-67
2022/05/23 11:52:01;;;;;;;5.93;1.60;;;;;;;25.44;56.80;100062.50;20762895;28;20046;-67
2022/05/23 12:02:26;;;;;;;4.15;1.50;;;;;;;25.82;59.50;100038.50;20762238;28;20080;-67
2022/05/23 12:12:52;;;;;;;5.90;1.45;;;;;;;25.48;54.06;99998.81;20776294;28;20096;-66
2022/05/23 12:23:29;;;;;;;;;;;;;;;25.28;63.76;99983.94;20764313;28;20057;-67
2022/05/23 12:34:01;;;;;;;;;;;;;;;24.84;64.78;99963.41;20776567;28;20067;-67
2022/05/23 12:44:59;;;;;;;4.40;1.50;;;;;;;24.57;52.37;99939.69;20754505;28;19921;-66
2022/05/23 12:55:27;;;;;;;;;;;;;;;24.62;64.81;99924.69;20758649;28;19925;-66
2022/05/23 13:05:59;;;;;;;4.47;1.30;;;;;;;24.60;54.43;99910.75;20770829;28;19956;-66
2022/05/23 13:16:24;;;;;;;3.30;1.50;;;;;;;24.72;60.20;99885.09;20780741;28;20491;-67
2022/05/23 13:26:47;;;;;;;3.03;1.55;;;;;;;24.81;62.21;99878.47;20802251;28;20076;-66
2022/05/23 13:37:09;;;;;;;4.10;1.60;;;;;;;24.77;62.37;99863.13;20761120;28;20050;-67
2022/05/23 13:47:32;;;;;;;5.60;1.80;;;;;;;24.82;62.36;99863.28;20792843;28;20529;-67
2022/05/23 13:58:23;;;;;;;5.63;1.83;;;;;;;24.82;51.53;99836.59;20781927;28;20523;-68
2022/05/23 14:08:49;;;;;;;9.45;2.97;;;;;;;24.85;62.59;99818.34;20771304;28;20498;-66
2022/05/23 14:19:22;;;;;;;5.95;2.38;;;;;;;24.99;52.84;99798.56;20790175;28;20556;-67
2022/05/23 14:29:45;;;;;;;6.47;2.40;;;;;;;25.09;61.46;99769.53;20775187;28;20045;-67
2022/05/23 14:40:11;;;;;;;6.32;2.00;;;;;;;25.20;59.36;99750.19;20779370;28;20053;-66
2022/05/23 14:50:36;;;;;;;5.90;1.73;;;;;;;25.28;61.24;99744.59;20785660;28;20060;-65
2022/05/23 15:00:57;;;;;;;3.42;1.42;;;;;;;25.35;60.79;99721.31;20765325;28;20038;-66
2022/05/23 15:11:27;;;;;;;4.85;1.65;;;;;;;25.34;54.92;99698.31;20758552;28;20099;-66
2022/05/23 15:21:49;;;;;;;;;;;;;;;25.29;49.62;99674.16;20777128;28;20479;-66
2022/05/23 15:32:11;;;;;;;4.28;1.77;;;;;;;25.93;60.20;99677.13;20770194;28;19925;-67
2022/05/23 15:42:33;;;;;;;5.05;1.63;;;;;;;25.94;59.67;99652.03;20791207;28;20137;-67
2022/05/23 15:52:55;;;;;;;5.93;1.48;;;;;;;25.61;59.05;99623.06;20760082;28;20042;-66
2022/05/23 16:03:17;;;;;;;2.72;1.63;;;;;;;25.42;61.99;99615.28;20767519;28;20045;-66
2022/05/23 16:13:41;;;;;;;4.28;1.83;;;;;;;25.38;61.57;99597.28;20740655;28;20049;-67
2022/05/23 16:24:03;;;;;;;3.72;1.60;;;;;;;25.26;62.22;99573.19;20762259;28;20046;-67
2022/05/23 16:45:07;;;;;;;6.05;1.70;;;;;;;25.26;62.36;99535.00;20781891;28;20045;-67
2022/05/23 16:55:28;;;;;;;4.38;1.83;;;;;;;25.08;63.09;99511.78;20758303;28;20044;-66
2022/05/23 17:05:51;;;;;;;4.10;1.63;;;;;;;25.09;62.59;99497.41;20763574;28;20045;-64
2022/05/23 17:16:12;;;;;;;7.07;1.50;;;;;;;25.09;62.05;99481.41;20760576;28;20128;-64
2022/05/23 17:26:38;;;;;;;8.40;1.83;;;;;;;25.12;62.91;99482.78;20785458;28;20048;-63
2022/05/23 17:37:00;;;;;;;5.03;1.88;;;;;;;25.03;62.05;99482.31;20782588;28;20542;-63
2022/05/23 17:47:21;;;;;;;5.13;1.45;;;;;;;24.95;62.39;99484.47;20792535;28;20053;-63
2022/05/23 17:57:44;;;;;;;7.65;1.73;;;;;;;24.77;62.73;99495.94;20782915;28;20466;-63
2022/05/23 18:08:06;;;;;;;7.88;1.60;;;;;;;24.56;61.83;99485.72;20793554;28;20052;-64
2022/05/23 18:29:07;;;;;;;3.97;1.85;;;;;;;24.10;62.43;99449.03;20761388;28;20048;-66
2022/05/23 18:39:29;;;;;;;6.10;1.70;;;;;;;23.87;63.43;99431.00;20788473;28;20038;-66
2022/05/23 18:49:56;;;;;;;5.40;1.90;;;;;;;23.61;64.14;99409.03;20778291;28;20052;-67
2022/05/23 19:00:18;;;;;;;3.78;2.08;;;;;;;23.50;64.15;99410.56;20770488;28;20050;-67
2022/05/23 19:10:45;;;;;;;3.97;2.13;;;;;;;23.12;65.21;99424.09;20767433;28;20064;-66
2022/05/23 19:21:07;;;;;;;7.68;2.38;;;;;;;22.76;67.04;99432.63;20773482;28;20042;-66
2022/05/23 19:31:28;;;;;;;2.55;2.17;;;;;;;22.38;68.26;99436.19;20767756;28;20385;-66
2022/05/23 19:41:51;;;;;;;4.00;2.67;;;;;;;22.02;69.53;99421.72;20762399;28;20390;-65
2022/05/23 19:52:12;;;;;;;4.25;2.35;;;;;;;21.82;69.41;99423.59;20761400;28;20058;-66
2022/05/23 20:13:15;;;;;;;4.72;2.97;;;;;;;21.22;71.82;99422.84;20758241;28;20058;-66
2022/05/23 20:23:36;;;;;;;5.72;3.00;;;;;;;20.92;73.86;99408.28;20752945;28;20061;-66
2022/05/23 20:34:18;;;;;;;6.57;3.42;;;;;;;20.61;75.05;99390.22;20764875;28;20045;-66
2022/05/23 20:44:39;;;;;;;7.28;3.83;;;;;;;20.45;75.75;99379.94;20759046;28;20049;-66
2022/05/23 20:55:01;;;;;;;6.90;4.10;;;;;;;20.39;75.66;99378.06;20761613;28;20053;-66
2022/05/23 21:05:26;;;;;;;7.35;4.07;;;;;;;20.34;76.29;99381.53;20758230;28;20056;-66
2022/05/23 21:15:48;;;;;;;4.25;3.40;;;;;;;20.23;76.27;99384.72;20779545;28;20054;-65
2022/05/23 21:26:16;;;;;;;6.25;3.65;;;;;;;20.28;75.91;99382.28;20753117;28;20436;-66
2022/05/23 21:36:38;;;;;;;5.97;3.40;;;;;;;20.26;75.55;99379.84;20769325;28;20137;-66
2022/05/23 21:47:00;;;;;;;5.68;3.50;;;;;;;20.23;75.46;99400.59;20755709;28;20038;-66
2022/05/23 21:57:22;;;;;;;9.73;4.53;;;;;;;20.08;77.72;99405.19;20785413;28;20081;-66
2022/05/23 22:07:44;;;;;;;9.27;5.10;;;;;;;19.73;81.85;99412.22;20770374;28;20061;-66
2022/05/23 22:18:05;;;;;;;5.47;4.47;;;;;;;19.41;82.57;99409.28;20771603;28;20388;-67
2022/05/23 22:28:27;;;;;;;10.23;5.40;;;;;;;19.42;82.61;99416.22;20771116;28;20475;-66
2022/05/23 22:38:49;;;;;;;6.95;4.90;;;;;;;19.47;83.00;99425.19;20759901;28;20049;-66
2022/05/23 22:49:10;;;;;;;3.40;2.72;;;;;;;19.34;82.32;99436.66;20780474;28;20846;-68
2022/05/23 22:59:32;;;;;;;7.15;5.68;;;;;;;18.86;87.58;99487.47;20767904;28;20051;-67
2022/05/23 23:09:54;;;;;;;7.45;6.70;;;;;;;17.90;87.22;99516.66;20781761;28;20048;-66
2022/05/23 23:20:18;;;;;;;9.60;6.13;;;;;;;17.58;86.46;99535.34;20770697;28;20040;-66
2022/05/23 23:30:40;;;;;;;7.40;6.70;;;;;;;17.38;84.06;99555.22;20773755;28;20049;-67
2022/05/23 23:41:01;;;;;;;6.65;6.03;;;;;;;17.19;86.17;99566.13;20766104;28;20539;-66
2022/05/23 23:51:23;;;;;;;6.82;5.40;;;;;;;17.03;84.88;99594.34;20768639;28;20552;-67
